createdAt,value
2022-11-04T00:00:30.221Z,16.60
2022-11-04T00:03:02.841Z,17.50
2022-11-04T00:05:31.688Z,17.10
2022-11-04T00:08:19.076Z,16.80
2022-11-04T00:11:06.439Z,17.10
2022-11-04T00:13:35.362Z,16.30
2022-11-04T00:16:22.966Z,17.30
2022-11-04T00:18:51.895Z,17.10
2022-11-04T00:21:39.283Z,18.50
2022-11-04T00:24:28.867Z,16.50
2022-11-04T00:27:16.254Z,17.30
2022-11-04T00:29:45.304Z,17.40
2022-11-04T00:32:32.297Z,17.40
2022-11-04T00:35:01.185Z,17.10
2022-11-04T00:37:30.190Z,16.40
2022-11-04T00:39:59.123Z,17.00
2022-11-04T00:42:27.966Z,17.00
2022-11-04T00:44:56.833Z,16.70
2022-11-04T00:47:25.744Z,16.30
2022-11-04T00:49:54.927Z,17.00
2022-11-04T00:52:23.856Z,16.70
2022-11-04T00:54:52.778Z,17.80
2022-11-04T00:57:21.695Z,16.80
2022-11-04T00:59:50.560Z,17.10
2022-11-04T01:02:19.617Z,17.30
2022-11-04T01:04:48.599Z,16.00
2022-11-04T01:07:17.547Z,17.20
2022-11-04T01:09:46.416Z,16.60
2022-11-04T01:12:16.319Z,18.00
2022-11-04T01:14:49.151Z,17.10
2022-11-04T01:17:18.092Z,16.50
2022-11-04T01:19:46.985Z,17.70
2022-11-04T01:22:15.896Z,18.30
2022-11-04T01:24:44.762Z,17.90
2022-11-04T01:27:13.662Z,17.20
2022-11-04T01:29:42.582Z,17.20
2022-11-04T01:32:11.437Z,18.30
2022-11-04T01:34:43.352Z,18.80
2022-11-04T01:37:12.743Z,17.10
2022-11-04T01:39:41.714Z,17.70
2022-11-04T01:42:14.738Z,16.80
2022-11-04T01:44:54.924Z,17.20
2022-11-04T01:47:28.404Z,15.70
2022-11-04T01:50:02.272Z,17.30
2022-11-04T01:52:35.825Z,17.10
2022-11-04T01:55:08.748Z,15.90
2022-11-04T01:57:40.687Z,17.70
2022-11-04T02:00:13.430Z,17.30
2022-11-04T02:02:51.069Z,17.30
2022-11-04T02:05:20.606Z,14.80
2022-11-04T02:07:51.663Z,17.20
2022-11-04T02:10:22.479Z,15.90
2022-11-04T02:12:51.458Z,17.50
2022-11-04T02:15:26.511Z,16.50
2022-11-04T02:18:16.025Z,16.30
2022-11-04T02:20:58.452Z,16.40
2022-11-04T02:23:48.840Z,15.50
2022-11-04T02:26:35.308Z,16.20
2022-11-04T02:29:27.051Z,17.30
2022-11-04T02:32:08.023Z,17.30
2022-11-04T02:34:47.409Z,16.50
2022-11-04T02:37:29.892Z,17.20
2022-11-04T02:40:09.799Z,17.40
2022-11-04T02:42:47.011Z,17.50
2022-11-04T02:45:23.001Z,17.10
2022-11-04T02:47:58.197Z,16.80
2022-11-04T02:50:34.670Z,17.20
2022-11-04T02:53:11.570Z,17.20
2022-11-04T02:55:48.044Z,17.40
2022-11-04T02:58:23.322Z,17.90
2022-11-04T03:00:56.998Z,18.50
2022-11-04T03:03:32.764Z,16.50
2022-11-04T03:06:05.936Z,18.10
2022-11-04T03:08:42.831Z,17.70
2022-11-04T03:11:17.668Z,18.30
2022-11-04T03:13:53.759Z,18.20
2022-11-04T03:16:28.171Z,17.70
2022-11-04T03:19:05.485Z,17.20
2022-11-04T03:21:40.760Z,16.90
2022-11-04T03:24:13.057Z,17.40
2022-11-04T03:26:48.694Z,18.10
2022-11-04T03:29:27.039Z,18.20
2022-11-04T03:32:09.102Z,17.80
2022-11-04T03:34:41.711Z,18.10
2022-11-04T03:37:14.080Z,19.40
2022-11-04T03:39:46.473Z,18.30
2022-11-04T03:42:22.260Z,18.30
2022-11-04T03:44:55.657Z,19.10
2022-11-04T03:47:31.501Z,16.70
2022-11-04T03:50:06.855Z,18.00
2022-11-04T03:52:39.648Z,18.20
2022-11-04T03:55:13.564Z,18.40
2022-11-04T03:57:52.010Z,17.10
2022-11-04T04:00:25.494Z,17.60
2022-11-04T04:03:03.678Z,17.70
2022-11-04T04:05:39.404Z,19.40
2022-11-04T04:08:25.009Z,17.60
2022-11-04T04:11:06.046Z,18.90
2022-11-04T04:13:40.534Z,16.80
2022-11-04T04:16:15.375Z,17.40
2022-11-04T04:18:54.224Z,18.70
2022-11-04T04:21:33.445Z,18.70
2022-11-04T04:24:33.821Z,18.20
2022-11-04T04:27:23.853Z,17.10
2022-11-04T04:29:56.415Z,18.10
2022-11-04T04:32:29.491Z,17.80
2022-11-04T04:35:15.411Z,19.00
2022-11-04T04:37:48.985Z,18.20
2022-11-04T04:40:41.419Z,16.80
2022-11-04T04:43:34.676Z,17.30
2022-11-04T04:46:07.008Z,17.50
2022-11-04T04:48:39.532Z,17.80
2022-11-04T04:51:11.759Z,18.00
2022-11-04T04:53:43.987Z,17.30
2022-11-04T04:56:16.234Z,14.90
2022-11-04T04:58:48.435Z,15.40
2022-11-04T05:01:20.882Z,18.70
2022-11-04T05:06:24.371Z,16.10
2022-11-04T05:08:57.926Z,17.90
2022-11-04T05:11:30.311Z,16.80
2022-11-04T05:14:02.686Z,16.80
2022-11-04T05:16:40.456Z,17.20
2022-11-04T05:19:13.667Z,16.70
2022-11-04T05:21:46.101Z,18.50
2022-11-04T05:24:18.468Z,16.40
2022-11-04T05:26:50.636Z,16.60
2022-11-04T05:29:23.194Z,16.30
2022-11-04T05:31:58.097Z,18.10
2022-11-04T05:34:30.543Z,17.60
2022-11-04T05:37:03.698Z,17.00
2022-11-04T05:39:35.825Z,14.90
2022-11-04T05:42:10.956Z,18.40
2022-11-04T05:47:13.910Z,16.20
2022-11-04T05:49:46.189Z,18.50
2022-11-04T05:52:19.330Z,16.30
2022-11-04T05:54:51.544Z,17.50
2022-11-04T05:57:23.699Z,16.20
2022-11-04T05:59:55.831Z,16.30
2022-11-04T06:02:28.256Z,16.10
2022-11-04T06:05:01.711Z,17.10
2022-11-04T06:07:34.120Z,16.80
2022-11-04T06:10:06.926Z,16.00
2022-11-04T06:12:39.410Z,16.70
2022-11-04T06:15:13.789Z,18.00
2022-11-04T06:17:46.596Z,15.30
2022-11-04T06:20:20.099Z,16.90
2022-11-04T06:22:53.456Z,17.70
2022-11-04T06:25:26.777Z,18.30
2022-11-04T06:27:59.266Z,17.20
2022-11-04T06:30:31.448Z,16.70
2022-11-04T06:33:04.578Z,18.50
2022-11-04T06:35:37.110Z,18.20
2022-11-04T06:40:40.517Z,16.20
2022-11-04T06:43:13.203Z,18.40
2022-11-04T06:45:45.375Z,17.90
2022-11-04T06:48:17.500Z,16.90
2022-11-04T06:50:49.733Z,17.90
2022-11-04T06:53:22.230Z,18.70
2022-11-04T06:55:54.631Z,18.40
2022-11-04T06:58:27.428Z,20.60
2022-11-04T07:00:59.729Z,20.40
2022-11-04T07:03:34.383Z,17.50
2022-11-04T07:06:12.502Z,19.80
2022-11-04T07:08:46.801Z,19.30
2022-11-04T07:11:23.380Z,18.10
2022-11-04T07:13:56.209Z,19.30
2022-11-04T07:16:29.646Z,21.30
2022-11-04T07:19:04.407Z,19.00
2022-11-04T07:21:38.404Z,27.60
2022-11-04T07:24:12.373Z,21.30
2022-11-04T07:26:45.411Z,19.60
2022-11-04T07:29:19.020Z,18.90
2022-11-04T07:31:53.398Z,18.50
2022-11-04T07:34:27.439Z,20.10
2022-11-04T07:37:02.407Z,19.70
2022-11-04T07:39:37.414Z,20.60
2022-11-04T07:42:12.485Z,18.90
2022-11-04T07:44:45.801Z,18.80
2022-11-04T07:47:18.552Z,18.90
2022-11-04T07:52:24.416Z,19.00
2022-11-04T07:54:57.713Z,18.10
2022-11-04T07:57:32.999Z,18.80
2022-11-04T08:00:08.419Z,16.60
2022-11-04T08:02:42.524Z,16.00
2022-11-04T08:12:43.524Z,20.30
2022-11-04T08:15:15.864Z,18.70
2022-11-04T08:24:00.300Z,17.50
2022-11-04T08:26:33.275Z,19.60
2022-11-04T08:29:09.540Z,19.20
2022-11-04T08:31:42.282Z,17.70
2022-11-04T08:34:14.866Z,18.10
2022-11-04T08:36:47.573Z,18.90
2022-11-04T08:39:19.910Z,18.10
2022-11-04T08:41:53.625Z,17.50
2022-11-04T08:44:25.855Z,17.60
2022-11-04T08:46:58.157Z,14.90
2022-11-04T08:49:30.488Z,16.50
2022-11-04T08:52:03.188Z,15.50
2022-11-04T08:54:35.423Z,15.70
2022-11-04T08:57:07.772Z,16.20
2022-11-04T08:59:40.511Z,15.60
2022-11-04T09:02:17.342Z,15.50
2022-11-04T09:10:13.070Z,15.80
2022-11-04T09:12:46.508Z,14.30
2022-11-04T09:15:18.999Z,15.50
2022-11-04T09:17:51.298Z,13.70
2022-11-04T09:20:23.650Z,15.50
2022-11-04T09:22:56.087Z,15.20
2022-11-04T09:25:28.836Z,15.30
2022-11-04T09:28:01.081Z,15.40
2022-11-04T09:30:33.575Z,14.80
2022-11-04T09:33:06.199Z,13.60
2022-11-04T09:35:38.745Z,14.10
2022-11-04T09:38:11.058Z,13.30
2022-11-04T09:40:43.393Z,14.90
2022-11-04T09:43:28.870Z,15.00
2022-11-04T09:46:01.732Z,14.20
2022-11-04T09:48:36.899Z,14.60
2022-11-04T09:51:16.632Z,13.70
2022-11-04T09:56:37.392Z,13.20
2022-11-04T09:59:13.009Z,12.60
2022-11-04T10:01:51.170Z,11.60
2022-11-04T10:04:31.521Z,13.10
2022-11-04T10:07:12.706Z,12.40
2022-11-04T10:09:54.693Z,12.10
2022-11-04T10:12:39.685Z,12.80
2022-11-04T10:15:33.818Z,12.70
2022-11-04T10:18:15.994Z,12.80
2022-11-04T10:20:54.311Z,13.90
2022-11-04T10:23:31.209Z,12.90
2022-11-04T10:26:09.332Z,11.90
2022-11-04T10:28:45.721Z,12.80
2022-11-04T10:31:20.033Z,11.80
2022-11-04T10:33:55.898Z,13.00
2022-11-04T10:36:29.176Z,12.70
2022-11-04T10:39:02.154Z,11.30
2022-11-04T10:41:37.237Z,12.20
2022-11-04T10:44:12.594Z,13.70
2022-11-04T10:46:51.055Z,12.30
2022-11-04T10:49:54.817Z,12.40
2022-11-04T10:52:38.002Z,11.70
2022-11-04T10:55:23.219Z,12.30
2022-11-04T10:57:57.720Z,12.20
2022-11-04T11:00:38.539Z,12.40
2022-11-04T11:03:26.684Z,12.20
2022-11-04T11:06:14.699Z,12.80
2022-11-04T11:08:47.451Z,11.70
2022-11-04T11:11:19.971Z,12.90
2022-11-04T11:13:52.845Z,10.50
2022-11-04T11:16:32.120Z,10.80
2022-11-04T11:19:17.968Z,11.80
2022-11-04T11:21:52.420Z,11.20
2022-11-04T11:24:26.888Z,10.40
2022-11-04T11:27:00.864Z,11.50
2022-11-04T11:29:40.604Z,10.80
2022-11-04T11:32:28.540Z,10.70
2022-11-04T11:35:04.347Z,10.90
2022-11-04T11:37:39.945Z,10.80
2022-11-04T11:40:27.611Z,10.20
2022-11-04T11:43:01.108Z,9.90
2022-11-04T11:45:35.031Z,10.00
2022-11-04T11:48:31.007Z,10.20
2022-11-04T11:51:03.408Z,9.40
2022-11-04T11:53:38.488Z,10.00
2022-11-04T11:56:36.244Z,9.50
2022-11-04T12:02:30.802Z,10.70
2022-11-04T12:10:52.583Z,10.10
2022-11-04T12:13:28.671Z,10.90
2022-11-04T12:16:15.287Z,9.80
2022-11-04T12:19:00.520Z,9.10
2022-11-04T12:21:36.698Z,9.60
2022-11-04T12:24:28.743Z,9.60
2022-11-04T12:27:06.562Z,8.40
2022-11-04T12:29:48.294Z,8.80
2022-11-04T12:32:30.325Z,9.50
2022-11-04T12:35:12.345Z,9.50
2022-11-04T12:37:52.328Z,9.10
2022-11-04T12:40:29.269Z,8.40
2022-11-04T12:43:10.035Z,9.80
2022-11-04T12:45:52.003Z,9.00
2022-11-04T12:48:41.168Z,8.50
2022-11-04T12:51:18.004Z,8.40
2022-11-04T12:54:04.193Z,9.10
2022-11-04T12:56:39.170Z,8.70
2022-11-04T12:59:50.023Z,9.30
2022-11-04T13:02:25.656Z,9.00
2022-11-04T13:05:04.856Z,9.30
2022-11-04T13:07:41.770Z,7.90
2022-11-04T13:10:20.386Z,9.20
2022-11-04T13:12:54.189Z,8.30
2022-11-04T13:15:29.246Z,9.10
2022-11-04T13:18:05.225Z,8.10
2022-11-04T13:20:44.623Z,9.00
2022-11-04T13:23:22.301Z,9.50
2022-11-04T13:25:55.258Z,9.00
2022-11-04T13:28:27.964Z,8.80
2022-11-04T13:31:07.167Z,8.50
2022-11-04T13:33:44.962Z,8.00
2022-11-04T13:36:25.939Z,12.60
2022-11-04T13:38:59.590Z,10.30
2022-11-04T13:41:54.480Z,8.30
2022-11-04T13:44:29.304Z,8.00
2022-11-04T13:47:03.028Z,8.10
2022-11-04T13:49:37.597Z,8.00
2022-11-04T13:52:12.067Z,8.80
2022-11-04T13:54:46.671Z,8.30
2022-11-04T13:57:20.647Z,8.80
2022-11-04T14:00:20.492Z,8.30
2022-11-04T14:02:53.351Z,8.60
2022-11-04T14:06:07.436Z,7.90
2022-11-04T14:09:18.849Z,8.10
2022-11-04T14:12:25.221Z,8.40
2022-11-04T14:15:03.819Z,7.70
2022-11-04T14:18:02.679Z,8.70
2022-11-04T14:20:37.857Z,7.90
2022-11-04T14:23:24.746Z,8.00
2022-11-04T14:26:06.764Z,8.70
2022-11-04T14:28:39.794Z,8.40
2022-11-04T14:31:17.555Z,8.60
2022-11-04T14:33:57.033Z,8.90
2022-11-04T14:36:34.717Z,8.80
2022-11-04T14:39:21.471Z,8.40
2022-11-04T14:42:00.085Z,8.50
2022-11-04T14:44:40.072Z,9.50
2022-11-04T14:47:20.568Z,9.20
2022-11-04T14:49:54.750Z,9.60
2022-11-04T14:52:29.448Z,8.40
2022-11-04T14:55:09.630Z,9.60
2022-11-04T14:57:43.935Z,8.70
2022-11-04T15:00:35.751Z,9.00
2022-11-04T15:04:04.599Z,9.30
2022-11-04T15:06:13.597Z,10.70
2022-11-04T15:08:48.191Z,9.10
2022-11-04T15:11:43.930Z,8.20
2022-11-04T15:14:22.928Z,8.10
2022-11-04T15:16:56.545Z,9.20
2022-11-04T15:19:32.455Z,8.90
2022-11-04T15:22:06.092Z,9.90
2022-11-04T15:24:38.845Z,9.30
2022-11-04T15:27:16.751Z,9.40
2022-11-04T15:29:57.586Z,10.20
2022-11-04T15:32:30.299Z,9.40
2022-11-04T15:35:02.842Z,9.30
2022-11-04T15:40:06.371Z,10.20
2022-11-04T15:42:40.468Z,11.00
2022-11-04T15:45:38.463Z,10.20
2022-11-04T15:48:28.583Z,10.50
2022-11-04T15:51:22.182Z,9.60
2022-11-04T15:53:57.157Z,10.20
2022-11-04T15:56:31.412Z,10.50
2022-11-04T15:59:04.363Z,10.80
2022-11-04T16:01:41.109Z,10.00
2022-11-04T16:04:14.035Z,11.10
2022-11-04T16:06:49.416Z,10.50
2022-11-04T16:09:28.941Z,10.90
2022-11-04T16:12:09.687Z,10.90
2022-11-04T16:14:47.634Z,10.50
2022-11-04T16:17:20.031Z,10.30
2022-11-04T16:19:54.602Z,10.80
2022-11-04T16:22:31.651Z,11.00
2022-11-04T16:25:05.556Z,10.90
2022-11-04T16:27:38.385Z,10.90
2022-11-04T16:30:18.373Z,11.50
2022-11-04T16:32:54.038Z,11.50
2022-11-04T16:35:27.856Z,11.30
2022-11-04T16:38:03.486Z,11.30
2022-11-04T16:40:36.456Z,10.90
2022-11-04T16:43:10.116Z,11.30
2022-11-04T16:45:42.592Z,11.40
2022-11-04T16:48:17.752Z,11.10
2022-11-04T16:50:53.292Z,11.50
2022-11-04T16:53:27.547Z,12.00
2022-11-04T16:56:00.288Z,11.60
2022-11-04T16:58:33.780Z,12.20
2022-11-04T17:01:06.370Z,13.40
2022-11-04T17:03:38.974Z,11.70
2022-11-04T17:08:45.212Z,12.00
2022-11-04T17:11:31.617Z,12.50
2022-11-04T17:14:06.611Z,12.30
2022-11-04T17:16:39.891Z,11.80
2022-11-04T17:19:17.558Z,12.10
2022-11-04T17:21:50.009Z,11.20
2022-11-04T17:24:22.318Z,11.90
2022-11-04T17:26:54.586Z,11.40
2022-11-04T17:29:26.812Z,12.00
2022-11-04T17:32:05.871Z,12.60
2022-11-04T17:34:40.849Z,12.50
2022-11-04T17:37:20.078Z,12.60
2022-11-04T17:39:56.638Z,12.70
2022-11-04T17:42:47.139Z,13.10
2022-11-04T17:45:22.062Z,12.00
2022-11-04T17:48:12.638Z,13.50
2022-11-04T17:51:19.424Z,13.40
2022-11-04T17:58:37.982Z,13.70
2022-11-04T18:01:06.082Z,12.90
2022-11-04T18:04:09.134Z,14.70
2022-11-04T18:07:31.977Z,14.70
2022-11-04T18:10:12.747Z,14.20
2022-11-04T18:12:46.791Z,14.90
2022-11-04T18:15:21.434Z,13.80
2022-11-04T18:18:02.100Z,15.40
2022-11-04T18:20:48.605Z,17.20
2022-11-04T18:26:40.334Z,15.90
2022-11-04T18:26:44.431Z,14.70
2022-11-04T18:29:24.380Z,14.70
2022-11-04T18:32:01.442Z,13.40
2022-11-04T18:34:33.748Z,16.60
2022-11-04T18:39:42.067Z,15.80
2022-11-04T18:42:14.857Z,15.20
2022-11-04T18:44:47.633Z,17.00
2022-11-04T18:50:20.707Z,15.00
2022-11-04T18:53:34.568Z,16.70
2022-11-04T18:56:24.180Z,16.10
2022-11-04T18:59:01.515Z,16.30
2022-11-04T19:01:36.109Z,16.50
2022-11-04T19:04:09.354Z,17.30
2022-11-04T19:06:45.355Z,16.30
2022-11-04T19:12:33.060Z,17.10
2022-11-04T19:15:07.773Z,16.70
2022-11-04T19:17:45.806Z,17.20
2022-11-04T19:20:19.385Z,16.90
2022-11-04T19:22:53.246Z,16.60
2022-11-04T19:25:28.656Z,16.00
2022-11-04T19:28:32.578Z,16.90
2022-11-04T19:31:02.659Z,17.60
2022-11-04T19:33:36.150Z,17.70
2022-11-04T19:36:13.575Z,16.20
2022-11-04T19:38:52.135Z,16.70
2022-11-04T19:41:43.701Z,18.80
2022-11-04T19:44:22.104Z,18.00
2022-11-04T19:46:55.805Z,16.50
2022-11-04T19:49:36.038Z,16.10
2022-11-04T19:52:09.187Z,16.20
2022-11-04T19:54:41.610Z,17.20
2022-11-04T19:57:18.112Z,16.80
2022-11-04T19:59:54.903Z,16.80
2022-11-04T20:02:27.749Z,17.90
2022-11-04T20:05:06.123Z,16.70
2022-11-04T20:07:42.981Z,16.80
2022-11-04T20:10:18.714Z,15.90
2022-11-04T20:13:09.540Z,17.40
2022-11-04T20:15:46.770Z,17.10
2022-11-04T20:18:24.926Z,17.50
2022-11-04T20:21:01.101Z,17.10
2022-11-04T20:23:37.046Z,17.30
2022-11-04T20:26:19.204Z,17.30
2022-11-04T20:35:16.691Z,19.20
2022-11-04T20:37:53.542Z,17.70
2022-11-04T20:40:32.426Z,19.20
2022-11-04T20:43:09.418Z,16.70
2022-11-04T20:46:05.839Z,18.00
2022-11-04T20:48:44.685Z,17.40
2022-11-04T20:51:31.782Z,17.80
2022-11-04T20:54:10.303Z,19.80
2022-11-04T20:56:50.963Z,18.60
2022-11-04T20:59:35.625Z,20.80
2022-11-04T21:02:23.367Z,21.60
2022-11-04T21:04:58.070Z,21.30
2022-11-04T21:07:29.578Z,21.30
2022-11-04T21:10:01.782Z,20.80
2022-11-04T21:12:34.032Z,22.90
2022-11-04T21:15:27.584Z,24.20
2022-11-04T21:18:00.260Z,22.40
2022-11-04T21:20:33.372Z,23.80
2022-11-04T21:24:01.678Z,23.00
2022-11-04T21:27:16.815Z,22.20
2022-11-04T21:33:26.217Z,22.30
2022-11-04T21:36:07.403Z,23.80
2022-11-04T21:38:40.459Z,22.20
2022-11-04T21:41:15.098Z,24.80
2022-11-04T21:43:47.386Z,24.00
2022-11-04T21:46:19.601Z,26.30
2022-11-04T21:48:51.823Z,24.60
2022-11-04T21:51:25.280Z,23.60
2022-11-04T21:53:58.230Z,24.10
2022-11-04T21:56:33.245Z,24.70
2022-11-04T21:59:07.564Z,25.00
2022-11-04T22:01:40.743Z,25.40
2022-11-04T22:04:13.698Z,25.50
2022-11-04T22:06:47.260Z,24.40
2022-11-04T22:09:21.042Z,23.50
2022-11-04T22:11:53.745Z,24.50
2022-11-04T22:14:26.772Z,23.40
2022-11-04T22:16:59.032Z,25.50
2022-11-04T22:19:31.324Z,24.80
2022-11-04T22:22:03.510Z,23.90
2022-11-04T22:24:36.024Z,24.70
2022-11-04T22:27:08.211Z,26.30
2022-11-04T22:29:43.450Z,24.60
2022-11-04T22:32:15.889Z,24.20
2022-11-04T22:34:48.148Z,25.70
2022-11-04T22:37:20.384Z,25.00
2022-11-04T22:39:52.671Z,26.70
2022-11-04T22:42:24.888Z,26.20
2022-11-04T22:44:57.161Z,28.00
2022-11-04T22:47:30.659Z,25.30
2022-11-04T22:50:02.909Z,24.20
2022-11-04T22:52:35.182Z,27.20
2022-11-04T22:55:08.312Z,25.70
2022-11-04T22:57:40.659Z,25.70
2022-11-04T23:00:15.074Z,27.50
2022-11-04T23:02:48.160Z,25.90
2022-11-04T23:05:21.059Z,25.50
2022-11-04T23:07:53.653Z,26.80
2022-11-04T23:10:43.848Z,27.00
2022-11-04T23:13:33.707Z,26.00
2022-11-04T23:16:34.631Z,24.40
2022-11-04T23:19:06.824Z,25.20
2022-11-04T23:21:55.487Z,25.40
2022-11-04T23:24:45.312Z,24.70
2022-11-04T23:27:31.882Z,24.90
2022-11-04T23:30:26.576Z,23.80
2022-11-04T23:33:00.993Z,23.20
2022-11-04T23:35:53.324Z,23.40
2022-11-04T23:38:26.234Z,22.70
2022-11-04T23:41:17.698Z,22.60
2022-11-04T23:43:49.935Z,21.70
2022-11-04T23:46:42.925Z,20.90
2022-11-04T23:49:33.771Z,20.10
2022-11-04T23:52:23.714Z,21.50
2022-11-04T23:55:13.676Z,21.50
2022-11-04T23:58:03.411Z,21.60
